Impacts TAF Board INFO
FOR SITUATIONAL AWARENESS. NOT TO BE USED FOR FLIGHT PLANNING PURPOSES.
IDs:

KSEA - Seattle-Tacoma Intl, WA, US

Issued at 1502 UTC 26 Apr 2018
Updated at 1700 UTC 26 Apr 2018
Potential Impact None Slight Moderate High
Time<<27/17Z 27/18Z 27/19Z 27/20Z 27/21Z 27/22Z 27/23Z 28/00Z 28/01Z 28/02Z 28/03Z 28/04Z 28/05Z
Type PRVL
VIS >6
CIG 12
Cover BKN
FltCat MVFR
WX --
WDir 230
WSpd 8
WGst --

Raw TAF
KSEA 261502Z 2615/2718 36006KT P6SM SKC
  FM270700 23008KT P6SM SCT250
  FM271600 23008KT P6SM BKN012


METAR Board
Radar Display
Forecast Discussion

FOR SITUATIONAL AWARENESS. NOT TO BE USED FOR FLIGHT PLANNING PURPOSES.